AZU2694 SBRP-SBGO
Flight info
| Callsign | AZU2694 |
|---|---|
| Flight time | 0h 47m |
| Altitude | 34000 |
| Route | IVROP UZ25 CORVO |
| Aircraft | A320/M-SDE3FGHIRWY/LB1 |
Departure
| Time | 2026-05-01 10:13 |
|---|---|
| Airport | Leite Lopes Airport (SBRP) |
Arrival
| Time | 2026-05-01 11:00 |
|---|---|
| Airport | Santa Genoveva International Airport (SBGO) |
| Time | Latitude | Longitude | Altitude | Speed | Heading |
|---|---|---|---|---|---|
| 2026-05-01 09:42 | -21.13917 | -47.77586 | 1805 ft | 0 kts | 254° |
| 2026-05-01 10:04 | -21.13915 | -47.77582 | 1805 ft | 3 kts | 255° |
| 2026-05-01 10:04 | -21.13914 | -47.77555 | 1829 ft | 4 kts | 297° |
| 2026-05-01 10:05 | -21.13930 | -47.77538 | 1801 ft | 2 kts | 343° |
| 2026-05-01 10:05 | -21.13935 | -47.77537 | 1803 ft | 0 kts | 343° |
| 2026-05-01 10:07 | -21.13930 | -47.77538 | 1801 ft | 5 kts | 343° |
| 2026-05-01 10:07 | -21.13871 | -47.77537 | 1804 ft | 9 kts | 49° |
| 2026-05-01 10:07 | -21.13848 | -47.77467 | 1804 ft | 12 kts | 58° |
| 2026-05-01 10:07 | -21.13760 | -47.77473 | 1802 ft | 14 kts | 343° |
| 2026-05-01 10:08 | -21.13592 | -47.77526 | 1804 ft | 11 kts | 343° |
| 2026-05-01 10:08 | -21.13487 | -47.77559 | 1804 ft | 18 kts | 343° |
| 2026-05-01 10:08 | -21.13363 | -47.77600 | 1801 ft | 19 kts | 343° |
| 2026-05-01 10:09 | -21.13237 | -47.77640 | 1804 ft | 15 kts | 343° |
| 2026-05-01 10:09 | -21.13137 | -47.77672 | 1804 ft | 14 kts | 343° |
| 2026-05-01 10:09 | -21.13046 | -47.77701 | 1803 ft | 13 kts | 343° |
| 2026-05-01 10:09 | -21.12967 | -47.77726 | 1801 ft | 11 kts | 343° |
| 2026-05-01 10:10 | -21.12869 | -47.77757 | 1804 ft | 17 kts | 343° |
| 2026-05-01 10:10 | -21.12754 | -47.77795 | 1802 ft | 18 kts | 343° |
| 2026-05-01 10:10 | -21.12676 | -47.77820 | 1801 ft | 4 kts | 344° |
| 2026-05-01 10:11 | -21.12617 | -47.77804 | 1802 ft | 10 kts | 42° |
| 2026-05-01 10:11 | -21.12598 | -47.77785 | 1802 ft | 3 kts | 43° |
| 2026-05-01 10:11 | -21.12568 | -47.77754 | 1804 ft | 9 kts | 43° |
| 2026-05-01 10:11 | -21.12542 | -47.77691 | 1804 ft | 8 kts | 127° |
| 2026-05-01 10:12 | -21.12596 | -47.77669 | 1802 ft | 11 kts | 164° |
| 2026-05-01 10:12 | -21.12702 | -47.77636 | 1804 ft | 47 kts | 163° |
| 2026-05-01 10:12 | -21.14643 | -47.76995 | 2255 ft | 165 kts | 160° |
| 2026-05-01 10:13 | -21.15757 | -47.76617 | 3078 ft | 169 kts | 160° |
| 2026-05-01 10:13 | -21.16894 | -47.76244 | 3784 ft | 174 kts | 160° |
| 2026-05-01 10:13 | -21.18108 | -47.75833 | 4114 ft | 193 kts | 155° |
| 2026-05-01 10:14 | -21.19311 | -47.73847 | 4511 ft | 219 kts | 83° |
| 2026-05-01 10:14 | -21.18665 | -47.72328 | 4849 ft | 239 kts | 44° |
| 2026-05-01 10:14 | -21.17134 | -47.71517 | 5259 ft | 261 kts | 7° |
| 2026-05-01 10:14 | -21.15280 | -47.71658 | 5971 ft | 272 kts | 350° |
| 2026-05-01 10:15 | -21.13425 | -47.72193 | 6776 ft | 278 kts | 345° |
| 2026-05-01 10:15 | -21.11574 | -47.72811 | 7529 ft | 283 kts | 345° |
| 2026-05-01 10:15 | -21.09657 | -47.73409 | 8303 ft | 287 kts | 346° |
| 2026-05-01 10:15 | -21.07711 | -47.73942 | 9044 ft | 291 kts | 347° |
| 2026-05-01 10:16 | -21.05721 | -47.74421 | 9814 ft | 295 kts | 348° |
| 2026-05-01 10:16 | -21.03686 | -47.74864 | 10409 ft | 305 kts | 349° |
| 2026-05-01 10:16 | -20.99254 | -47.75757 | 10991 ft | 341 kts | 349° |
| 2026-05-01 10:17 | -20.96902 | -47.76217 | 11609 ft | 346 kts | 349° |
| 2026-05-01 10:17 | -20.92113 | -47.77151 | 12929 ft | 352 kts | 349° |
| 2026-05-01 10:17 | -20.89694 | -47.77628 | 13580 ft | 355 kts | 349° |
| 2026-05-01 10:18 | -20.84803 | -47.78599 | 14719 ft | 360 kts | 349° |
| 2026-05-01 10:18 | -20.82326 | -47.79093 | 15265 ft | 363 kts | 348° |
| 2026-05-01 10:18 | -20.79836 | -47.79588 | 15814 ft | 365 kts | 348° |
| 2026-05-01 10:19 | -20.77328 | -47.80086 | 16345 ft | 368 kts | 348° |
| 2026-05-01 10:19 | -20.74809 | -47.80586 | 16909 ft | 370 kts | 348° |
| 2026-05-01 10:19 | -20.72270 | -47.81087 | 17462 ft | 372 kts | 348° |
| 2026-05-01 10:20 | -20.67130 | -47.82098 | 18511 ft | 378 kts | 348° |
| 2026-05-01 10:20 | -20.64542 | -47.82610 | 18969 ft | 380 kts | 348° |
| 2026-05-01 10:20 | -20.61933 | -47.83129 | 19416 ft | 383 kts | 348° |
| 2026-05-01 10:20 | -20.59307 | -47.83652 | 19868 ft | 385 kts | 348° |
| 2026-05-01 10:21 | -20.56668 | -47.84177 | 20321 ft | 387 kts | 348° |
| 2026-05-01 10:21 | -20.51329 | -47.85236 | 21205 ft | 392 kts | 348° |
| 2026-05-01 10:21 | -20.48641 | -47.85766 | 21635 ft | 395 kts | 348° |
| 2026-05-01 10:22 | -20.43204 | -47.86831 | 22506 ft | 400 kts | 348° |
| 2026-05-01 10:22 | -20.37687 | -47.87917 | 23361 ft | 405 kts | 348° |
| 2026-05-01 10:23 | -20.34941 | -47.88433 | 23755 ft | 408 kts | 349° |
| 2026-05-01 10:23 | -20.29267 | -47.89244 | 24459 ft | 413 kts | 352° |
| 2026-05-01 10:23 | -20.26408 | -47.89593 | 24811 ft | 415 kts | 352° |
| 2026-05-01 10:24 | -20.20641 | -47.90305 | 25501 ft | 419 kts | 351° |
| 2026-05-01 10:24 | -20.14837 | -47.91078 | 26169 ft | 423 kts | 351° |
| 2026-05-01 10:25 | -20.08952 | -47.91890 | 26848 ft | 428 kts | 351° |
| 2026-05-01 10:25 | -20.03053 | -47.92700 | 27520 ft | 432 kts | 351° |
| 2026-05-01 10:26 | -20.00055 | -47.93106 | 27848 ft | 434 kts | 351° |
| 2026-05-01 10:26 | -19.97046 | -47.93511 | 28175 ft | 436 kts | 351° |
| 2026-05-01 10:26 | -19.90993 | -47.94323 | 28832 ft | 441 kts | 351° |
| 2026-05-01 10:27 | -19.84881 | -47.95144 | 29454 ft | 445 kts | 351° |
| 2026-05-01 10:27 | -19.78699 | -47.95979 | 30047 ft | 449 kts | 351° |
| 2026-05-01 10:28 | -19.75593 | -47.96397 | 30328 ft | 451 kts | 351° |
| 2026-05-01 10:28 | -19.69333 | -47.97238 | 30810 ft | 455 kts | 351° |
| 2026-05-01 10:28 | -19.66191 | -47.97662 | 31056 ft | 456 kts | 351° |
| 2026-05-01 10:29 | -19.59867 | -47.98514 | 31511 ft | 460 kts | 351° |
| 2026-05-01 10:29 | -19.56691 | -47.98943 | 31839 ft | 459 kts | 351° |
| 2026-05-01 10:30 | -19.50407 | -47.99793 | 32515 ft | 457 kts | 351° |
| 2026-05-01 10:30 | -19.44109 | -48.00640 | 33182 ft | 456 kts | 351° |
| 2026-05-01 10:31 | -19.37826 | -48.01474 | 33868 ft | 454 kts | 351° |
| 2026-05-01 10:31 | -19.31570 | -48.02305 | 34129 ft | 446 kts | 351° |
| 2026-05-01 10:32 | -19.22432 | -48.03565 | 34126 ft | 440 kts | 350° |
| 2026-05-01 10:33 | -19.10298 | -48.05300 | 34147 ft | 439 kts | 350° |
| 2026-05-01 10:34 | -19.01241 | -48.06571 | 34168 ft | 440 kts | 351° |
| 2026-05-01 10:34 | -18.95129 | -48.07423 | 34175 ft | 440 kts | 351° |
| 2026-05-01 10:35 | -18.89143 | -48.08607 | 34184 ft | 437 kts | 339° |
| 2026-05-01 10:35 | -18.86282 | -48.09703 | 34177 ft | 436 kts | 338° |
| 2026-05-01 10:35 | -18.80614 | -48.11884 | 34171 ft | 436 kts | 338° |
| 2026-05-01 10:36 | -18.72059 | -48.15147 | 34145 ft | 436 kts | 338° |
| 2026-05-01 10:37 | -18.66342 | -48.17324 | 34136 ft | 437 kts | 338° |
| 2026-05-01 10:37 | -18.57762 | -48.20595 | 34109 ft | 438 kts | 338° |
| 2026-05-01 10:38 | -18.52027 | -48.22777 | 34094 ft | 438 kts | 339° |
| 2026-05-01 10:38 | -18.46286 | -48.24955 | 34100 ft | 438 kts | 339° |
| 2026-05-01 10:39 | -18.40540 | -48.27138 | 34099 ft | 439 kts | 339° |
| 2026-05-01 10:39 | -18.34795 | -48.29323 | 34102 ft | 439 kts | 339° |
| 2026-05-01 10:40 | -18.29043 | -48.31506 | 34105 ft | 439 kts | 339° |
| 2026-05-01 10:40 | -18.23296 | -48.33687 | 34102 ft | 439 kts | 339° |
| 2026-05-01 10:41 | -18.17551 | -48.35867 | 34099 ft | 439 kts | 339° |
| 2026-05-01 10:42 | -18.08958 | -48.39122 | 34097 ft | 440 kts | 339° |
| 2026-05-01 10:42 | -18.03097 | -48.41342 | 34108 ft | 451 kts | 339° |
| 2026-05-01 10:43 | -17.97198 | -48.43576 | 34102 ft | 453 kts | 339° |
| 2026-05-01 10:43 | -17.94238 | -48.44693 | 33313 ft | 454 kts | 339° |
| 2026-05-01 10:43 | -17.91211 | -48.45837 | 31326 ft | 470 kts | 339° |
| 2026-05-01 10:43 | -17.88086 | -48.47020 | 29699 ft | 485 kts | 339° |
| 2026-05-01 10:44 | -17.84920 | -48.48220 | 29054 ft | 479 kts | 339° |
| 2026-05-01 10:44 | -17.81839 | -48.49387 | 28916 ft | 462 kts | 339° |
| 2026-05-01 10:44 | -17.78867 | -48.50508 | 28784 ft | 446 kts | 339° |
| 2026-05-01 10:44 | -17.75998 | -48.51589 | 28523 ft | 429 kts | 339° |
| 2026-05-01 10:45 | -17.73229 | -48.52635 | 27787 ft | 418 kts | 339° |
| 2026-05-01 10:45 | -17.70531 | -48.53676 | 27051 ft | 409 kts | 338° |
| 2026-05-01 10:45 | -17.67950 | -48.54801 | 26598 ft | 393 kts | 336° |
| 2026-05-01 10:45 | -17.65503 | -48.55968 | 26143 ft | 380 kts | 334° |
| 2026-05-01 10:46 | -17.63147 | -48.57143 | 25703 ft | 374 kts | 334° |
| 2026-05-01 10:46 | -17.60805 | -48.58321 | 25236 ft | 373 kts | 334° |
| 2026-05-01 10:46 | -17.58462 | -48.59486 | 24776 ft | 372 kts | 335° |
| 2026-05-01 10:46 | -17.56117 | -48.60634 | 24303 ft | 372 kts | 335° |
| 2026-05-01 10:47 | -17.53767 | -48.61767 | 23820 ft | 371 kts | 336° |
| 2026-05-01 10:47 | -17.51415 | -48.62890 | 23285 ft | 371 kts | 336° |
| 2026-05-01 10:47 | -17.49072 | -48.64005 | 22805 ft | 369 kts | 336° |
| 2026-05-01 10:47 | -17.46736 | -48.65116 | 22330 ft | 368 kts | 336° |
| 2026-05-01 10:48 | -17.44416 | -48.66222 | 21867 ft | 366 kts | 336° |
| 2026-05-01 10:48 | -17.42099 | -48.67325 | 21403 ft | 365 kts | 336° |
| 2026-05-01 10:48 | -17.39792 | -48.68424 | 20945 ft | 363 kts | 336° |
| 2026-05-01 10:48 | -17.37492 | -48.69522 | 20489 ft | 362 kts | 336° |
| 2026-05-01 10:49 | -17.35196 | -48.70618 | 20039 ft | 362 kts | 336° |
| 2026-05-01 10:49 | -17.32936 | -48.71696 | 19589 ft | 361 kts | 336° |
| 2026-05-01 10:49 | -17.30624 | -48.72799 | 19140 ft | 361 kts | 337° |
| 2026-05-01 10:49 | -17.28371 | -48.73874 | 18695 ft | 361 kts | 337° |
| 2026-05-01 10:50 | -17.26095 | -48.74964 | 18331 ft | 358 kts | 337° |
| 2026-05-01 10:50 | -17.23827 | -48.76048 | 17873 ft | 356 kts | 337° |
| 2026-05-01 10:50 | -17.21580 | -48.77119 | 17383 ft | 355 kts | 337° |
| 2026-05-01 10:50 | -17.19338 | -48.78186 | 16934 ft | 354 kts | 337° |
| 2026-05-01 10:51 | -17.17111 | -48.79245 | 16568 ft | 350 kts | 337° |
| 2026-05-01 10:51 | -17.14846 | -48.80298 | 15723 ft | 362 kts | 337° |
| 2026-05-01 10:51 | -17.12570 | -48.81375 | 15524 ft | 353 kts | 336° |
| 2026-05-01 10:51 | -17.10371 | -48.82431 | 15328 ft | 345 kts | 336° |
| 2026-05-01 10:52 | -17.08178 | -48.83484 | 14922 ft | 345 kts | 336° |
| 2026-05-01 10:52 | -17.06016 | -48.84518 | 14501 ft | 339 kts | 336° |
| 2026-05-01 10:52 | -17.03888 | -48.85533 | 13971 ft | 332 kts | 336° |
| 2026-05-01 10:52 | -17.01816 | -48.86519 | 13533 ft | 322 kts | 336° |
| 2026-05-01 10:53 | -16.99812 | -48.87474 | 13142 ft | 311 kts | 336° |
| 2026-05-01 10:53 | -16.97855 | -48.88403 | 12764 ft | 309 kts | 336° |
| 2026-05-01 10:53 | -16.95895 | -48.89332 | 12374 ft | 310 kts | 336° |
| 2026-05-01 10:53 | -16.93921 | -48.90266 | 11983 ft | 311 kts | 336° |
| 2026-05-01 10:54 | -16.91946 | -48.91203 | 11591 ft | 313 kts | 336° |
| 2026-05-01 10:54 | -16.89956 | -48.92148 | 11187 ft | 315 kts | 336° |
| 2026-05-01 10:54 | -16.87953 | -48.93101 | 10787 ft | 317 kts | 336° |
| 2026-05-01 10:54 | -16.85964 | -48.94042 | 10362 ft | 320 kts | 336° |
| 2026-05-01 10:55 | -16.83916 | -48.95010 | 9927 ft | 322 kts | 336° |
| 2026-05-01 10:55 | -16.81865 | -48.95980 | 9469 ft | 322 kts | 336° |
| 2026-05-01 10:55 | -16.79863 | -48.96926 | 9030 ft | 311 kts | 336° |
| 2026-05-01 10:55 | -16.77924 | -48.97850 | 8597 ft | 300 kts | 336° |
| 2026-05-01 10:56 | -16.76264 | -48.99104 | 8190 ft | 294 kts | 316° |
| 2026-05-01 10:56 | -16.75111 | -49.00838 | 7770 ft | 289 kts | 303° |
| 2026-05-01 10:56 | -16.74452 | -49.02031 | 7495 ft | 284 kts | 303° |
| 2026-05-01 10:56 | -16.73149 | -49.04374 | 6809 ft | 278 kts | 303° |
| 2026-05-01 10:57 | -16.72207 | -49.06064 | 6365 ft | 261 kts | 304° |
| 2026-05-01 10:57 | -16.71316 | -49.07658 | 5964 ft | 248 kts | 304° |
| 2026-05-01 10:57 | -16.70740 | -49.08688 | 5706 ft | 240 kts | 305° |
| 2026-05-01 10:57 | -16.69662 | -49.10608 | 5257 ft | 224 kts | 306° |
| 2026-05-01 10:58 | -16.68887 | -49.11985 | 4909 ft | 215 kts | 306° |
| 2026-05-01 10:58 | -16.68155 | -49.13290 | 4586 ft | 199 kts | 306° |
| 2026-05-01 10:58 | -16.67484 | -49.14492 | 4256 ft | 186 kts | 305° |
| 2026-05-01 10:58 | -16.67058 | -49.15252 | 4052 ft | 179 kts | 305° |
| 2026-05-01 10:59 | -16.66448 | -49.16335 | 3770 ft | 168 kts | 304° |
| 2026-05-01 10:59 | -16.65863 | -49.17358 | 3540 ft | 160 kts | 302° |
| 2026-05-01 10:59 | -16.65304 | -49.18346 | 3247 ft | 157 kts | 301° |
| 2026-05-01 10:59 | -16.64764 | -49.19304 | 2949 ft | 150 kts | 301° |
| 2026-05-01 11:00 | -16.64248 | -49.20228 | 2731 ft | 146 kts | 301° |
| 2026-05-01 11:00 | -16.63740 | -49.21140 | 2495 ft | 144 kts | 301° |
| 2026-05-01 11:00 | -16.63265 | -49.21984 | 2448 ft | 113 kts | 300° |
| 2026-05-01 11:00 | -16.63023 | -49.22412 | 2459 ft | 23 kts | 301° |
| 2026-05-01 11:01 | -16.62934 | -49.22538 | 2445 ft | 24 kts | 313° |
| 2026-05-01 11:01 | -16.62794 | -49.22639 | 2459 ft | 18 kts | 333° |
| 2026-05-01 11:01 | -16.62733 | -49.22597 | 2458 ft | 13 kts | 102° |
| 2026-05-01 11:01 | -16.62773 | -49.22522 | 2463 ft | 11 kts | 120° |
| 2026-05-01 11:02 | -16.62817 | -49.22445 | 2461 ft | 18 kts | 121° |
| 2026-05-01 11:02 | -16.62901 | -49.22294 | 2453 ft | 27 kts | 120° |
| 2026-05-01 11:02 | -16.62986 | -49.22112 | 2445 ft | 28 kts | 102° |
| 2026-05-01 11:02 | -16.62968 | -49.21907 | 2450 ft | 28 kts | 78° |
| 2026-05-01 11:03 | -16.62928 | -49.21721 | 2463 ft | 24 kts | 77° |
| 2026-05-01 11:03 | -16.62942 | -49.21620 | 2462 ft | 11 kts | 159° |
| 2026-05-01 11:03 | -16.63013 | -49.21590 | 2462 ft | 11 kts | 150° |
| 2026-05-01 11:03 | -16.63071 | -49.21549 | 2466 ft | 6 kts | 139° |
| 2026-05-01 11:04 | -16.63070 | -49.21520 | 2467 ft | 6 kts | 34° |
| 2026-05-01 11:04 | -16.63052 | -49.21498 | 2462 ft | 0 kts | 50° |
| 2026-05-01 11:04 | -16.63049 | -49.21494 | 2462 ft | 1 kts | 50° |
| 2026-05-01 11:04 | -16.63044 | -49.21488 | 2462 ft | 1 kts | 49° |
| 2026-05-01 11:05 | -16.63038 | -49.21481 | 2462 ft | 1 kts | 49° |
| 2026-05-01 11:05 | -16.63037 | -49.21480 | 2462 ft | 0 kts | 49° |